Portada
METAR-TAF:

METAR-TAF

Aeroports :

Mysore, Índia

latitud: 12-13-48N, longitud: 76-39-21E, altitud: 715 m

Observació

L'informe es va fer fa 36 minuts, a les 08:30 UTC
Vent 12 kt del Sud-Oest
Temperatura 31°C
Humitat 55%
Pressió 1010 hPa
Visibilitat: 6000 m
Núvols disperses a una alçada de 1500 ft
Núvols disperses a una alçada de 2000 ft

METAR: VOMY 060830Z 23012KT 6000 SCT015 SCT020 31/21 Q1010

Hora: 14:36 (09:06 UTC)

Pronòstic

L'informe es va fer fa 1 hora i 6 minuts, a les 08:00 UTC
Pronòstic vàlid del 06 a les 09 UTC al 06 a les 18 UTC
Vent 10 kt del Oest/Sud-Oest
Visibilitat: 8000 m
Núvols disperses a una alçada de 1200 ft
Temporalment
l' 06 a les 09 UTC al 06 a les 15 UTC
Visibilitat: 4000 m
Núvols disperses a una alçada de 1200 ft
Núvols disperses a una alçada de 2000 ft
Escasses núvols a una alçada de 2500 ft, Cumulonimbus.
pluja, plugim

TAF: VOMY 060800Z 0609/0618 25010KT 8000 SCT012 TEMPO 0609/0615 4000 RA DZ SCT012 SCT020 FEW025CB

Observacions i pronòstics meteorològics de més de 4000 aeroports (METAR i TAF).

Les estacions disponibles són els punts grocs i vermells al mapa.

Posi el ratolí al punt desitjat per veure el nom de l'estació.

Feu clic per veure les observacions i els pronòstics meteorològics.

Per canviar el mapa: feu clic els botons verds amb una creu de color negre per apropar; al botó verd amb un guió per allunyar la imatge; o en les fletxes verdes per a mapes adjacents.


METAR-TAF: